sensor_id;sensor_type;location;lat;lon;timestamp;P1;durP1;ratioP1;P2;durP2;ratioP2
28335;SDS011;15592;53.656;7.276;2023-02-03T00:00:23;23.90;;;3.53;;
28335;SDS011;15592;53.656;7.276;2023-02-03T00:02:48;22.27;;;4.07;;
28335;SDS011;15592;53.656;7.276;2023-02-03T00:05:14;23.83;;;4.53;;
28335;SDS011;15592;53.656;7.276;2023-02-03T00:07:40;23.10;;;4.43;;
28335;SDS011;15592;53.656;7.276;2023-02-03T00:10:06;23.20;;;4.15;;
28335;SDS011;15592;53.656;7.276;2023-02-03T00:12:32;21.60;;;3.28;;
28335;SDS011;15592;53.656;7.276;2023-02-03T00:14:58;26.38;;;4.35;;
28335;SDS011;15592;53.656;7.276;2023-02-03T00:17:23;22.10;;;3.83;;
28335;SDS011;15592;53.656;7.276;2023-02-03T00:19:49;22.48;;;3.58;;
28335;SDS011;15592;53.656;7.276;2023-02-03T00:22:15;24.23;;;4.68;;
28335;SDS011;15592;53.656;7.276;2023-02-03T00:24:40;19.38;;;3.47;;
28335;SDS011;15592;53.656;7.276;2023-02-03T00:27:06;25.92;;;3.88;;
28335;SDS011;15592;53.656;7.276;2023-02-03T00:29:31;23.85;;;4.28;;
28335;SDS011;15592;53.656;7.276;2023-02-03T00:31:57;23.77;;;5.00;;
28335;SDS011;15592;53.656;7.276;2023-02-03T00:34:29;21.33;;;3.70;;
28335;SDS011;15592;53.656;7.276;2023-02-03T00:36:55;27.17;;;5.45;;
28335;SDS011;15592;53.656;7.276;2023-02-03T00:39:21;20.25;;;3.67;;
28335;SDS011;15592;53.656;7.276;2023-02-03T00:41:46;23.48;;;3.92;;
28335;SDS011;15592;53.656;7.276;2023-02-03T00:44:12;21.42;;;3.78;;
28335;SDS011;15592;53.656;7.276;2023-02-03T00:46:38;19.88;;;3.92;;
28335;SDS011;15592;53.656;7.276;2023-02-03T00:49:04;17.65;;;3.40;;
28335;SDS011;15592;53.656;7.276;2023-02-03T00:51:30;25.15;;;3.85;;
28335;SDS011;15592;53.656;7.276;2023-02-03T00:53:57;18.23;;;3.70;;
28335;SDS011;15592;53.656;7.276;2023-02-03T00:56:23;22.70;;;4.30;;
28335;SDS011;15592;53.656;7.276;2023-02-03T00:58:48;29.27;;;4.28;;
28335;SDS011;15592;53.656;7.276;2023-02-03T01:01:14;26.95;;;3.50;;
28335;SDS011;15592;53.656;7.276;2023-02-03T01:03:39;20.80;;;3.92;;
28335;SDS011;15592;53.656;7.276;2023-02-03T01:06:09;24.08;;;3.83;;
28335;SDS011;15592;53.656;7.276;2023-02-03T01:08:40;18.92;;;4.05;;
28335;SDS011;15592;53.656;7.276;2023-02-03T01:11:11;25.73;;;4.50;;
28335;SDS011;15592;53.656;7.276;2023-02-03T01:13:39;20.48;;;3.78;;
28335;SDS011;15592;53.656;7.276;2023-02-03T01:19:26;24.13;;;4.32;;
28335;SDS011;15592;53.656;7.276;2023-02-03T01:21:52;21.05;;;4.53;;
28335;SDS011;15592;53.656;7.276;2023-02-03T01:24:18;23.35;;;4.20;;
28335;SDS011;15592;53.656;7.276;2023-02-03T01:26:43;22.90;;;4.00;;
28335;SDS011;15592;53.656;7.276;2023-02-03T01:29:09;20.83;;;4.55;;
28335;SDS011;15592;53.656;7.276;2023-02-03T01:31:36;23.63;;;4.30;;
28335;SDS011;15592;53.656;7.276;2023-02-03T01:34:03;28.40;;;4.55;;
28335;SDS011;15592;53.656;7.276;2023-02-03T01:36:34;25.80;;;4.43;;
28335;SDS011;15592;53.656;7.276;2023-02-03T01:39:00;32.40;;;6.10;;
28335;SDS011;15592;53.656;7.276;2023-02-03T01:41:28;18.25;;;5.00;;
28335;SDS011;15592;53.656;7.276;2023-02-03T01:43:59;28.45;;;4.80;;
28335;SDS011;15592;53.656;7.276;2023-02-03T01:46:30;28.92;;;5.65;;
28335;SDS011;15592;53.656;7.276;2023-02-03T01:51:48;29.58;;;5.38;;
28335;SDS011;15592;53.656;7.276;2023-02-03T01:54:18;28.48;;;5.60;;
28335;SDS011;15592;53.656;7.276;2023-02-03T01:56:50;35.40;;;5.20;;
28335;SDS011;15592;53.656;7.276;2023-02-03T01:59:19;23.65;;;4.55;;
28335;SDS011;15592;53.656;7.276;2023-02-03T02:01:46;26.67;;;4.65;;
28335;SDS011;15592;53.656;7.276;2023-02-03T02:04:13;23.55;;;4.40;;
28335;SDS011;15592;53.656;7.276;2023-02-03T02:06:39;16.27;;;4.22;;
28335;SDS011;15592;53.656;7.276;2023-02-03T02:09:04;22.38;;;4.50;;
28335;SDS011;15592;53.656;7.276;2023-02-03T02:11:31;29.33;;;3.88;;
28335;SDS011;15592;53.656;7.276;2023-02-03T02:13:59;22.13;;;3.95;;
28335;SDS011;15592;53.656;7.276;2023-02-03T02:27:30;24.25;;;4.13;;
28335;SDS011;15592;53.656;7.276;2023-02-03T02:36:44;20.58;;;4.10;;
28335;SDS011;15592;53.656;7.276;2023-02-03T02:39:22;20.23;;;4.70;;
28335;SDS011;15592;53.656;7.276;2023-02-03T02:42:14;23.00;;;4.28;;
28335;SDS011;15592;53.656;7.276;2023-02-03T02:45:14;27.23;;;4.65;;
28335;SDS011;15592;53.656;7.276;2023-02-03T02:47:46;31.20;;;5.40;;
28335;SDS011;15592;53.656;7.276;2023-02-03T02:50:15;26.40;;;4.97;;
28335;SDS011;15592;53.656;7.276;2023-02-03T02:52:46;23.05;;;5.05;;
28335;SDS011;15592;53.656;7.276;2023-02-03T02:55:19;26.42;;;4.15;;
28335;SDS011;15592;53.656;7.276;2023-02-03T02:57:55;23.40;;;3.88;;
28335;SDS011;15592;53.656;7.276;2023-02-03T03:00:24;27.40;;;5.60;;
28335;SDS011;15592;53.656;7.276;2023-02-03T03:02:54;24.63;;;4.57;;
28335;SDS011;15592;53.656;7.276;2023-02-03T03:05:21;21.42;;;4.00;;
28335;SDS011;15592;53.656;7.276;2023-02-03T03:07:50;24.45;;;4.65;;
28335;SDS011;15592;53.656;7.276;2023-02-03T03:10:22;24.02;;;4.20;;
28335;SDS011;15592;53.656;7.276;2023-02-03T03:12:53;26.73;;;4.68;;
28335;SDS011;15592;53.656;7.276;2023-02-03T03:15:26;20.02;;;4.07;;
28335;SDS011;15592;53.656;7.276;2023-02-03T03:18:03;27.77;;;4.07;;
28335;SDS011;15592;53.656;7.276;2023-02-03T03:20:38;30.33;;;4.93;;
28335;SDS011;15592;53.656;7.276;2023-02-03T03:23:08;21.17;;;4.68;;
28335;SDS011;15592;53.656;7.276;2023-02-03T03:25:45;21.83;;;4.60;;
28335;SDS011;15592;53.656;7.276;2023-02-03T03:28:16;23.48;;;5.05;;
28335;SDS011;15592;53.656;7.276;2023-02-03T03:30:50;23.58;;;5.28;;
28335;SDS011;15592;53.656;7.276;2023-02-03T03:33:17;25.83;;;5.13;;
28335;SDS011;15592;53.656;7.276;2023-02-03T03:35:58;27.45;;;5.57;;
28335;SDS011;15592;53.656;7.276;2023-02-03T03:38:47;33.95;;;6.40;;
28335;SDS011;15592;53.656;7.276;2023-02-03T03:46:26;36.70;;;5.50;;
28335;SDS011;15592;53.656;7.276;2023-02-03T03:48:56;35.95;;;5.95;;
28335;SDS011;15592;53.656;7.276;2023-02-03T03:53:56;26.23;;;5.60;;
28335;SDS011;15592;53.656;7.276;2023-02-03T03:56:28;29.77;;;5.20;;
28335;SDS011;15592;53.656;7.276;2023-02-03T03:58:59;28.98;;;5.03;;
28335;SDS011;15592;53.656;7.276;2023-02-03T04:01:27;27.85;;;5.95;;
28335;SDS011;15592;53.656;7.276;2023-02-03T04:03:55;26.23;;;5.78;;
28335;SDS011;15592;53.656;7.276;2023-02-03T04:08:50;30.75;;;4.95;;
28335;SDS011;15592;53.656;7.276;2023-02-03T04:11:16;34.45;;;5.60;;
28335;SDS011;15592;53.656;7.276;2023-02-03T04:14:03;35.33;;;5.72;;
28335;SDS011;15592;53.656;7.276;2023-02-03T04:16:28;31.48;;;5.70;;
28335;SDS011;15592;53.656;7.276;2023-02-03T04:18:54;24.77;;;4.85;;
28335;SDS011;15592;53.656;7.276;2023-02-03T04:21:20;26.27;;;5.43;;
28335;SDS011;15592;53.656;7.276;2023-02-03T04:23:45;25.67;;;5.10;;
28335;SDS011;15592;53.656;7.276;2023-02-03T04:26:11;26.75;;;5.07;;
28335;SDS011;15592;53.656;7.276;2023-02-03T04:28:36;40.65;;;6.72;;
28335;SDS011;15592;53.656;7.276;2023-02-03T04:31:02;36.65;;;5.90;;
28335;SDS011;15592;53.656;7.276;2023-02-03T04:33:28;32.50;;;5.88;;
28335;SDS011;15592;53.656;7.276;2023-02-03T04:35:53;27.63;;;5.07;;
28335;SDS011;15592;53.656;7.276;2023-02-03T04:38:19;24.05;;;4.47;;
28335;SDS011;15592;53.656;7.276;2023-02-03T04:40:45;24.55;;;5.07;;
28335;SDS011;15592;53.656;7.276;2023-02-03T04:43:10;33.53;;;5.35;;
28335;SDS011;15592;53.656;7.276;2023-02-03T04:45:38;32.80;;;5.93;;
28335;SDS011;15592;53.656;7.276;2023-02-03T04:48:03;32.42;;;5.55;;
28335;SDS011;15592;53.656;7.276;2023-02-03T04:50:29;30.48;;;6.10;;
28335;SDS011;15592;53.656;7.276;2023-02-03T04:52:55;38.22;;;7.03;;
28335;SDS011;15592;53.656;7.276;2023-02-03T04:55:24;35.05;;;5.80;;
28335;SDS011;15592;53.656;7.276;2023-02-03T04:57:59;29.08;;;5.03;;
28335;SDS011;15592;53.656;7.276;2023-02-03T05:00:26;22.65;;;4.82;;
28335;SDS011;15592;53.656;7.276;2023-02-03T05:02:52;25.60;;;4.82;;
28335;SDS011;15592;53.656;7.276;2023-02-03T05:05:18;28.48;;;5.68;;
28335;SDS011;15592;53.656;7.276;2023-02-03T05:07:44;39.42;;;6.22;;
28335;SDS011;15592;53.656;7.276;2023-02-03T05:10:10;29.08;;;5.45;;
28335;SDS011;15592;53.656;7.276;2023-02-03T05:12:36;24.13;;;5.05;;
28335;SDS011;15592;53.656;7.276;2023-02-03T05:15:01;36.13;;;6.13;;
28335;SDS011;15592;53.656;7.276;2023-02-03T05:17:27;26.15;;;5.55;;
28335;SDS011;15592;53.656;7.276;2023-02-03T05:19:53;31.10;;;6.53;;
28335;SDS011;15592;53.656;7.276;2023-02-03T05:22:18;30.27;;;6.15;;
28335;SDS011;15592;53.656;7.276;2023-02-03T05:24:44;33.63;;;7.05;;
28335;SDS011;15592;53.656;7.276;2023-02-03T05:27:10;37.85;;;6.65;;
28335;SDS011;15592;53.656;7.276;2023-02-03T05:29:35;43.35;;;7.78;;
28335;SDS011;15592;53.656;7.276;2023-02-03T05:32:01;44.72;;;6.75;;
28335;SDS011;15592;53.656;7.276;2023-02-03T05:34:27;44.88;;;6.80;;
28335;SDS011;15592;53.656;7.276;2023-02-03T05:36:52;39.53;;;6.80;;
28335;SDS011;15592;53.656;7.276;2023-02-03T05:39:18;49.22;;;7.03;;
28335;SDS011;15592;53.656;7.276;2023-02-03T05:41:44;37.25;;;5.90;;
28335;SDS011;15592;53.656;7.276;2023-02-03T05:44:19;44.92;;;7.53;;
28335;SDS011;15592;53.656;7.276;2023-02-03T05:46:53;39.35;;;6.47;;
28335;SDS011;15592;53.656;7.276;2023-02-03T05:49:21;37.10;;;6.20;;
28335;SDS011;15592;53.656;7.276;2023-02-03T05:51:47;42.70;;;6.60;;
28335;SDS011;15592;53.656;7.276;2023-02-03T05:54:14;27.10;;;5.65;;
28335;SDS011;15592;53.656;7.276;2023-02-03T05:56:40;35.30;;;6.97;;
28335;SDS011;15592;53.656;7.276;2023-02-03T05:59:06;33.97;;;5.57;;
28335;SDS011;15592;53.656;7.276;2023-02-03T06:01:32;38.75;;;7.10;;
28335;SDS011;15592;53.656;7.276;2023-02-03T06:03:59;31.58;;;6.28;;
28335;SDS011;15592;53.656;7.276;2023-02-03T06:06:25;38.03;;;6.78;;
28335;SDS011;15592;53.656;7.276;2023-02-03T06:08:57;33.75;;;6.38;;
28335;SDS011;15592;53.656;7.276;2023-02-03T06:11:23;30.05;;;5.85;;
28335;SDS011;15592;53.656;7.276;2023-02-03T06:13:49;37.85;;;6.75;;
28335;SDS011;15592;53.656;7.276;2023-02-03T06:16:15;29.98;;;5.82;;
28335;SDS011;15592;53.656;7.276;2023-02-03T06:18:40;31.15;;;5.95;;
28335;SDS011;15592;53.656;7.276;2023-02-03T06:21:06;32.17;;;6.72;;
28335;SDS011;15592;53.656;7.276;2023-02-03T06:23:32;31.00;;;6.38;;
28335;SDS011;15592;53.656;7.276;2023-02-03T06:25:58;40.55;;;7.45;;
28335;SDS011;15592;53.656;7.276;2023-02-03T06:28:26;43.83;;;8.52;;
28335;SDS011;15592;53.656;7.276;2023-02-03T06:30:52;40.20;;;6.50;;
28335;SDS011;15592;53.656;7.276;2023-02-03T06:33:18;40.33;;;6.55;;
28335;SDS011;15592;53.656;7.276;2023-02-03T06:35:44;39.55;;;6.85;;
28335;SDS011;15592;53.656;7.276;2023-02-03T06:38:10;47.03;;;7.97;;
28335;SDS011;15592;53.656;7.276;2023-02-03T06:40:36;37.58;;;7.25;;
28335;SDS011;15592;53.656;7.276;2023-02-03T06:43:01;36.75;;;6.63;;
28335;SDS011;15592;53.656;7.276;2023-02-03T06:45:27;31.90;;;6.32;;
28335;SDS011;15592;53.656;7.276;2023-02-03T06:47:53;36.50;;;6.45;;
28335;SDS011;15592;53.656;7.276;2023-02-03T06:50:18;32.13;;;6.65;;
28335;SDS011;15592;53.656;7.276;2023-02-03T06:52:47;39.55;;;7.38;;
28335;SDS011;15592;53.656;7.276;2023-02-03T06:55:14;49.20;;;8.20;;
28335;SDS011;15592;53.656;7.276;2023-02-03T06:57:43;41.90;;;7.60;;
28335;SDS011;15592;53.656;7.276;2023-02-03T07:00:10;36.78;;;6.30;;
28335;SDS011;15592;53.656;7.276;2023-02-03T07:02:40;48.03;;;8.02;;
28335;SDS011;15592;53.656;7.276;2023-02-03T07:05:26;37.53;;;7.28;;
28335;SDS011;15592;53.656;7.276;2023-02-03T07:07:52;42.00;;;7.20;;
28335;SDS011;15592;53.656;7.276;2023-02-03T07:10:18;43.88;;;7.65;;
28335;SDS011;15592;53.656;7.276;2023-02-03T07:12:44;43.30;;;8.07;;
28335;SDS011;15592;53.656;7.276;2023-02-03T07:15:10;43.33;;;7.78;;
28335;SDS011;15592;53.656;7.276;2023-02-03T07:17:37;47.90;;;8.98;;
28335;SDS011;15592;53.656;7.276;2023-02-03T07:20:02;34.30;;;7.05;;
28335;SDS011;15592;53.656;7.276;2023-02-03T07:22:29;46.13;;;6.63;;
28335;SDS011;15592;53.656;7.276;2023-02-03T07:24:54;33.67;;;6.82;;
28335;SDS011;15592;53.656;7.276;2023-02-03T07:27:20;31.63;;;7.30;;
28335;SDS011;15592;53.656;7.276;2023-02-03T07:29:46;37.63;;;6.47;;
28335;SDS011;15592;53.656;7.276;2023-02-03T07:32:11;32.40;;;6.43;;
28335;SDS011;15592;53.656;7.276;2023-02-03T07:34:37;44.38;;;7.13;;
28335;SDS011;15592;53.656;7.276;2023-02-03T07:37:02;25.13;;;7.07;;
28335;SDS011;15592;53.656;7.276;2023-02-03T07:39:28;29.58;;;6.10;;
28335;SDS011;15592;53.656;7.276;2023-02-03T07:41:54;33.72;;;6.97;;
28335;SDS011;15592;53.656;7.276;2023-02-03T07:44:19;40.10;;;7.28;;
28335;SDS011;15592;53.656;7.276;2023-02-03T07:46:45;39.55;;;7.70;;
28335;SDS011;15592;53.656;7.276;2023-02-03T07:49:11;41.70;;;8.75;;
28335;SDS011;15592;53.656;7.276;2023-02-03T07:51:37;32.22;;;7.03;;
28335;SDS011;15592;53.656;7.276;2023-02-03T07:54:02;34.25;;;7.43;;
28335;SDS011;15592;53.656;7.276;2023-02-03T07:56:28;33.03;;;7.05;;
28335;SDS011;15592;53.656;7.276;2023-02-03T07:58:56;30.50;;;6.65;;
28335;SDS011;15592;53.656;7.276;2023-02-03T08:01:25;38.55;;;8.32;;
28335;SDS011;15592;53.656;7.276;2023-02-03T08:03:51;39.60;;;8.52;;
28335;SDS011;15592;53.656;7.276;2023-02-03T08:06:16;43.10;;;8.73;;
28335;SDS011;15592;53.656;7.276;2023-02-03T08:08:42;37.53;;;6.78;;
28335;SDS011;15592;53.656;7.276;2023-02-03T08:11:08;47.38;;;9.30;;
28335;SDS011;15592;53.656;7.276;2023-02-03T08:13:35;46.53;;;8.88;;
28335;SDS011;15592;53.656;7.276;2023-02-03T08:16:01;41.00;;;7.60;;
28335;SDS011;15592;53.656;7.276;2023-02-03T08:18:26;30.95;;;6.55;;
28335;SDS011;15592;53.656;7.276;2023-02-03T08:20:52;34.20;;;7.18;;
28335;SDS011;15592;53.656;7.276;2023-02-03T08:23:17;32.85;;;6.68;;
28335;SDS011;15592;53.656;7.276;2023-02-03T08:25:43;48.17;;;8.20;;
28335;SDS011;15592;53.656;7.276;2023-02-03T08:28:09;51.50;;;8.50;;
28335;SDS011;15592;53.656;7.276;2023-02-03T08:30:35;52.05;;;8.35;;
28335;SDS011;15592;53.656;7.276;2023-02-03T08:33:00;39.15;;;7.30;;
28335;SDS011;15592;53.656;7.276;2023-02-03T08:35:27;43.40;;;7.60;;
28335;SDS011;15592;53.656;7.276;2023-02-03T08:37:53;41.75;;;7.93;;
28335;SDS011;15592;53.656;7.276;2023-02-03T08:40:19;50.38;;;10.15;;
28335;SDS011;15592;53.656;7.276;2023-02-03T08:42:45;42.75;;;8.45;;
28335;SDS011;15592;53.656;7.276;2023-02-03T08:45:10;48.05;;;8.23;;
28335;SDS011;15592;53.656;7.276;2023-02-03T08:47:36;57.40;;;10.30;;
28335;SDS011;15592;53.656;7.276;2023-02-03T08:50:04;38.15;;;7.30;;
28335;SDS011;15592;53.656;7.276;2023-02-03T08:52:30;42.88;;;8.38;;
28335;SDS011;15592;53.656;7.276;2023-02-03T08:54:56;38.45;;;8.38;;
28335;SDS011;15592;53.656;7.276;2023-02-03T08:57:21;34.78;;;7.32;;
28335;SDS011;15592;53.656;7.276;2023-02-03T08:59:47;44.08;;;9.50;;
28335;SDS011;15592;53.656;7.276;2023-02-03T09:02:15;53.55;;;8.55;;
28335;SDS011;15592;53.656;7.276;2023-02-03T09:04:42;36.70;;;7.55;;
28335;SDS011;15592;53.656;7.276;2023-02-03T09:07:09;53.60;;;9.38;;
28335;SDS011;15592;53.656;7.276;2023-02-03T09:09:35;45.33;;;8.82;;
28335;SDS011;15592;53.656;7.276;2023-02-03T09:12:01;38.97;;;8.15;;
28335;SDS011;15592;53.656;7.276;2023-02-03T09:14:29;42.60;;;8.60;;
28335;SDS011;15592;53.656;7.276;2023-02-03T09:16:57;33.03;;;7.32;;
28335;SDS011;15592;53.656;7.276;2023-02-03T09:19:23;42.08;;;8.00;;
28335;SDS011;15592;53.656;7.276;2023-02-03T09:21:49;47.47;;;8.57;;
28335;SDS011;15592;53.656;7.276;2023-02-03T09:24:15;45.28;;;8.20;;
28335;SDS011;15592;53.656;7.276;2023-02-03T09:26:42;44.53;;;7.90;;
28335;SDS011;15592;53.656;7.276;2023-02-03T09:29:07;46.70;;;9.38;;
28335;SDS011;15592;53.656;7.276;2023-02-03T09:31:33;35.97;;;7.20;;
28335;SDS011;15592;53.656;7.276;2023-02-03T09:33:59;45.60;;;7.43;;
28335;SDS011;15592;53.656;7.276;2023-02-03T09:36:24;47.20;;;7.13;;
28335;SDS011;15592;53.656;7.276;2023-02-03T09:38:50;49.70;;;8.55;;
28335;SDS011;15592;53.656;7.276;2023-02-03T09:41:59;35.78;;;6.80;;
28335;SDS011;15592;53.656;7.276;2023-02-03T09:46:54;38.42;;;7.15;;
28335;SDS011;15592;53.656;7.276;2023-02-03T09:49:26;40.92;;;7.07;;
28335;SDS011;15592;53.656;7.276;2023-02-03T09:52:22;36.75;;;6.85;;
28335;SDS011;15592;53.656;7.276;2023-02-03T09:57:19;43.42;;;8.32;;
28335;SDS011;15592;53.656;7.276;2023-02-03T09:59:47;58.70;;;9.20;;
28335;SDS011;15592;53.656;7.276;2023-02-03T10:10:55;51.13;;;9.55;;
28335;SDS011;15592;53.656;7.276;2023-02-03T10:16:08;44.00;;;7.65;;
28335;SDS011;15592;53.656;7.276;2023-02-03T10:18:43;45.08;;;8.27;;
28335;SDS011;15592;53.656;7.276;2023-02-03T10:21:13;54.95;;;8.23;;
28335;SDS011;15592;53.656;7.276;2023-02-03T10:23:45;56.25;;;9.70;;
28335;SDS011;15592;53.656;7.276;2023-02-03T10:26:17;37.17;;;8.05;;
28335;SDS011;15592;53.656;7.276;2023-02-03T10:28:56;49.75;;;9.73;;
28335;SDS011;15592;53.656;7.276;2023-02-03T10:31:27;47.50;;;9.57;;
28335;SDS011;15592;53.656;7.276;2023-02-03T10:33:58;46.27;;;8.93;;
28335;SDS011;15592;53.656;7.276;2023-02-03T10:37:12;37.43;;;8.03;;
28335;SDS011;15592;53.656;7.276;2023-02-03T10:41:52;47.70;;;8.85;;
28335;SDS011;15592;53.656;7.276;2023-02-03T10:44:17;46.60;;;8.88;;
28335;SDS011;15592;53.656;7.276;2023-02-03T10:46:43;42.15;;;8.27;;
28335;SDS011;15592;53.656;7.276;2023-02-03T10:49:10;40.15;;;8.25;;
28335;SDS011;15592;53.656;7.276;2023-02-03T10:51:49;45.60;;;7.75;;
28335;SDS011;15592;53.656;7.276;2023-02-03T10:54:32;37.92;;;7.15;;
28335;SDS011;15592;53.656;7.276;2023-02-03T10:57:06;40.80;;;7.45;;
28335;SDS011;15592;53.656;7.276;2023-02-03T10:59:40;35.75;;;7.07;;
28335;SDS011;15592;53.656;7.276;2023-02-03T11:02:08;40.70;;;7.20;;
28335;SDS011;15592;53.656;7.276;2023-02-03T11:04:44;42.47;;;7.15;;
28335;SDS011;15592;53.656;7.276;2023-02-03T11:07:22;37.03;;;8.20;;
28335;SDS011;15592;53.656;7.276;2023-02-03T11:09:50;53.15;;;8.60;;
28335;SDS011;15592;53.656;7.276;2023-02-03T11:12:19;34.22;;;7.45;;
28335;SDS011;15592;53.656;7.276;2023-02-03T11:14:54;37.95;;;7.43;;
28335;SDS011;15592;53.656;7.276;2023-02-03T11:17:23;31.05;;;7.60;;
28335;SDS011;15592;53.656;7.276;2023-02-03T11:19:58;36.75;;;9.00;;
28335;SDS011;15592;53.656;7.276;2023-02-03T11:25:35;30.83;;;6.63;;
28335;SDS011;15592;53.656;7.276;2023-02-03T11:31:38;27.77;;;6.68;;
28335;SDS011;15592;53.656;7.276;2023-02-03T11:34:17;36.60;;;6.55;;
28335;SDS011;15592;53.656;7.276;2023-02-03T11:36:47;32.10;;;6.80;;
28335;SDS011;15592;53.656;7.276;2023-02-03T11:39:22;27.45;;;6.53;;
28335;SDS011;15592;53.656;7.276;2023-02-03T11:41:51;31.58;;;6.80;;
28335;SDS011;15592;53.656;7.276;2023-02-03T11:44:19;29.83;;;6.40;;
28335;SDS011;15592;53.656;7.276;2023-02-03T11:46:54;40.60;;;7.68;;
28335;SDS011;15592;53.656;7.276;2023-02-03T11:55:04;35.13;;;8.18;;
28335;SDS011;15592;53.656;7.276;2023-02-03T11:57:46;39.40;;;7.65;;
28335;SDS011;15592;53.656;7.276;2023-02-03T12:06:20;43.78;;;8.52;;
28335;SDS011;15592;53.656;7.276;2023-02-03T12:11:39;39.92;;;8.30;;
28335;SDS011;15592;53.656;7.276;2023-02-03T12:25:29;49.47;;;7.85;;
28335;SDS011;15592;53.656;7.276;2023-02-03T12:30:39;40.63;;;8.57;;
28335;SDS011;15592;53.656;7.276;2023-02-03T12:33:18;32.22;;;7.15;;
28335;SDS011;15592;53.656;7.276;2023-02-03T12:38:39;51.13;;;8.63;;
28335;SDS011;15592;53.656;7.276;2023-02-03T12:41:12;37.42;;;7.47;;
28335;SDS011;15592;53.656;7.276;2023-02-03T12:43:48;39.63;;;7.15;;
28335;SDS011;15592;53.656;7.276;2023-02-03T12:46:21;40.60;;;7.30;;
28335;SDS011;15592;53.656;7.276;2023-02-03T12:54:01;40.90;;;6.75;;
28335;SDS011;15592;53.656;7.276;2023-02-03T12:56:42;26.55;;;5.93;;
28335;SDS011;15592;53.656;7.276;2023-02-03T12:59:13;29.42;;;6.55;;
28335;SDS011;15592;53.656;7.276;2023-02-03T13:01:45;28.80;;;5.53;;
28335;SDS011;15592;53.656;7.276;2023-02-03T13:07:20;24.85;;;5.43;;
28335;SDS011;15592;53.656;7.276;2023-02-03T13:09:59;24.17;;;6.15;;
28335;SDS011;15592;53.656;7.276;2023-02-03T13:12:40;26.77;;;5.35;;
28335;SDS011;15592;53.656;7.276;2023-02-03T13:17:56;29.40;;;6.63;;
28335;SDS011;15592;53.656;7.276;2023-02-03T13:20:28;26.05;;;5.43;;
28335;SDS011;15592;53.656;7.276;2023-02-03T13:22:58;28.60;;;5.63;;
28335;SDS011;15592;53.656;7.276;2023-02-03T13:25:31;28.67;;;6.40;;
28335;SDS011;15592;53.656;7.276;2023-02-03T13:30:41;32.17;;;5.82;;
28335;SDS011;15592;53.656;7.276;2023-02-03T13:43:47;35.67;;;6.70;;
28335;SDS011;15592;53.656;7.276;2023-02-03T13:46:20;33.95;;;6.88;;
28335;SDS011;15592;53.656;7.276;2023-02-03T13:48:48;45.47;;;7.65;;
28335;SDS011;15592;53.656;7.276;2023-02-03T13:51:16;40.85;;;6.65;;
28335;SDS011;15592;53.656;7.276;2023-02-03T13:56:30;37.28;;;7.63;;
28335;SDS011;15592;53.656;7.276;2023-02-03T13:59:01;33.20;;;7.07;;
28335;SDS011;15592;53.656;7.276;2023-02-03T14:01:52;30.67;;;6.38;;
28335;SDS011;15592;53.656;7.276;2023-02-03T14:12:37;30.70;;;6.10;;
28335;SDS011;15592;53.656;7.276;2023-02-03T14:22:56;23.23;;;4.90;;
28335;SDS011;15592;53.656;7.276;2023-02-03T14:25:29;31.95;;;6.78;;
28335;SDS011;15592;53.656;7.276;2023-02-03T14:28:08;36.88;;;7.03;;
28335;SDS011;15592;53.656;7.276;2023-02-03T14:33:44;32.90;;;6.72;;
28335;SDS011;15592;53.656;7.276;2023-02-03T14:38:59;43.60;;;8.95;;
28335;SDS011;15592;53.656;7.276;2023-02-03T14:41:51;43.10;;;9.07;;
28335;SDS011;15592;53.656;7.276;2023-02-03T14:44:22;47.55;;;8.30;;
28335;SDS011;15592;53.656;7.276;2023-02-03T14:47:33;45.00;;;8.60;;
28335;SDS011;15592;53.656;7.276;2023-02-03T14:55:46;50.22;;;9.13;;
28335;SDS011;15592;53.656;7.276;2023-02-03T14:58:34;43.08;;;7.97;;
28335;SDS011;15592;53.656;7.276;2023-02-03T15:01:06;45.63;;;8.20;;
28335;SDS011;15592;53.656;7.276;2023-02-03T15:06:41;37.78;;;7.00;;
28335;SDS011;15592;53.656;7.276;2023-02-03T15:09:29;42.22;;;7.15;;
28335;SDS011;15592;53.656;7.276;2023-02-03T15:11:56;37.50;;;7.65;;
28335;SDS011;15592;53.656;7.276;2023-02-03T15:14:23;47.55;;;7.80;;
28335;SDS011;15592;53.656;7.276;2023-02-03T15:16:54;41.00;;;8.68;;
28335;SDS011;15592;53.656;7.276;2023-02-03T15:19:21;37.92;;;7.45;;
28335;SDS011;15592;53.656;7.276;2023-02-03T15:21:49;34.83;;;7.00;;
28335;SDS011;15592;53.656;7.276;2023-02-03T15:24:16;41.58;;;8.25;;
28335;SDS011;15592;53.656;7.276;2023-02-03T15:26:53;51.47;;;8.10;;
28335;SDS011;15592;53.656;7.276;2023-02-03T15:31:58;43.55;;;10.00;;
28335;SDS011;15592;53.656;7.276;2023-02-03T15:34:32;49.95;;;8.30;;
28335;SDS011;15592;53.656;7.276;2023-02-03T15:37:00;48.92;;;8.45;;
28335;SDS011;15592;53.656;7.276;2023-02-03T15:42:07;41.08;;;8.45;;
28335;SDS011;15592;53.656;7.276;2023-02-03T15:44:49;46.00;;;8.43;;
28335;SDS011;15592;53.656;7.276;2023-02-03T15:47:25;52.17;;;9.65;;
28335;SDS011;15592;53.656;7.276;2023-02-03T15:49:59;41.65;;;7.55;;
28335;SDS011;15592;53.656;7.276;2023-02-03T15:52:28;48.15;;;8.13;;
28335;SDS011;15592;53.656;7.276;2023-02-03T15:55:02;45.28;;;7.57;;
28335;SDS011;15592;53.656;7.276;2023-02-03T15:57:33;44.85;;;8.52;;
28335;SDS011;15592;53.656;7.276;2023-02-03T16:00:07;41.33;;;7.32;;
28335;SDS011;15592;53.656;7.276;2023-02-03T16:02:51;47.75;;;7.78;;
28335;SDS011;15592;53.656;7.276;2023-02-03T16:05:20;56.63;;;8.48;;
28335;SDS011;15592;53.656;7.276;2023-02-03T16:07:55;50.05;;;8.00;;
28335;SDS011;15592;53.656;7.276;2023-02-03T16:10:29;56.33;;;8.07;;
28335;SDS011;15592;53.656;7.276;2023-02-03T16:16:02;38.50;;;7.07;;
28335;SDS011;15592;53.656;7.276;2023-02-03T16:18:34;44.58;;;8.50;;
28335;SDS011;15592;53.656;7.276;2023-02-03T16:21:00;43.72;;;8.57;;
28335;SDS011;15592;53.656;7.276;2023-02-03T16:23:27;49.83;;;8.35;;
28335;SDS011;15592;53.656;7.276;2023-02-03T16:28:38;58.45;;;9.38;;
28335;SDS011;15592;53.656;7.276;2023-02-03T16:31:22;60.25;;;10.02;;
28335;SDS011;15592;53.656;7.276;2023-02-03T16:34:13;54.05;;;9.02;;
28335;SDS011;15592;53.656;7.276;2023-02-03T16:37:00;51.60;;;7.80;;
28335;SDS011;15592;53.656;7.276;2023-02-03T16:39:44;42.97;;;7.38;;
28335;SDS011;15592;53.656;7.276;2023-02-03T16:42:38;44.90;;;7.45;;
28335;SDS011;15592;53.656;7.276;2023-02-03T16:45:31;46.30;;;9.32;;
28335;SDS011;15592;53.656;7.276;2023-02-03T16:48:15;52.88;;;8.98;;
28335;SDS011;15592;53.656;7.276;2023-02-03T16:51:02;36.92;;;7.38;;
28335;SDS011;15592;53.656;7.276;2023-02-03T16:53:39;44.73;;;8.70;;
28335;SDS011;15592;53.656;7.276;2023-02-03T16:56:05;42.40;;;7.57;;
28335;SDS011;15592;53.656;7.276;2023-02-03T16:58:30;49.22;;;8.90;;
28335;SDS011;15592;53.656;7.276;2023-02-03T17:00:57;47.90;;;8.15;;
28335;SDS011;15592;53.656;7.276;2023-02-03T17:03:24;47.13;;;7.65;;
28335;SDS011;15592;53.656;7.276;2023-02-03T17:06:01;49.05;;;8.05;;
28335;SDS011;15592;53.656;7.276;2023-02-03T17:08:35;56.00;;;8.60;;
28335;SDS011;15592;53.656;7.276;2023-02-03T17:11:14;48.90;;;8.40;;
28335;SDS011;15592;53.656;7.276;2023-02-03T17:13:42;44.70;;;7.75;;
28335;SDS011;15592;53.656;7.276;2023-02-03T17:16:09;48.78;;;8.75;;
28335;SDS011;15592;53.656;7.276;2023-02-03T17:18:38;40.90;;;7.40;;
28335;SDS011;15592;53.656;7.276;2023-02-03T17:21:04;45.95;;;6.93;;
28335;SDS011;15592;53.656;7.276;2023-02-03T17:23:32;47.25;;;7.38;;
28335;SDS011;15592;53.656;7.276;2023-02-03T17:26:00;53.40;;;8.20;;
28335;SDS011;15592;53.656;7.276;2023-02-03T17:28:26;49.30;;;7.88;;